CheckWX is a tool to help pilots better visualize weather data.  It is not intended as a substitute for an official pre-flight weather briefing.

17:31:23 UTC

KOUN TAF
University of Oklahoma Westheimer Airport
Norman, Oklahoma, USA
KOUN 241423Z 2414/2512 34007KT P6SM BKN025 TEMPO 2414/2416 5SM BR BKN006 FM241900 34008KT P6SM BKN250

Mar-24@
14:00 UTC

Mar-24 @ 14:00 UTC

Mar-24@
19:00 UTC

Mar-24 @ 19:00 UTC

KOUN 241423Z 2414/2512 34007KT P6SM BKN025
Wind
  • 340° at 7 KTS
Cloud Levels
  • Broken at 2,500' AGL

Mar-24@
14:00 UTC

Mar-24 @ 14:00 UTC

Mar-24@
16:00 UTC

Mar-24 @ 16:00 UTC

TEMPO 2414/2416 5SM BR BKN006

Expired

Conditions
Mist
Cloud Levels
  • Broken at 600' AGL

Mar-24@
19:00 UTC

Mar-24 @ 19:00 UTC

Mar-25@
12:00 UTC

Mar-25 @ 12:00 UTC

FM241900 34008KT P6SM BKN250

From

From Standard forecast or significant change

Wind
  • 340° at 8 KTS
Cloud Levels
  • Broken at 25,000' AGL